Time;durP1;ratioP1;P1;durP2;ratioP2;P2;SDS_P1;SDS_P2;PMS_P1;PMS_P2;Temp;Humidity;BMP_temperature;BMP_pressure;BME280_temperature;BME280_humidity;BME280_pressure;Samples;Min_cycle;Max_cycle;Signal;HPM_P1;HPM_P2
2021/01/30 00:02:03;;;;;;;4.00;3.00;;;0.70;99.90;;;;;;6219338;23;20301;-82
2021/01/30 00:04:30;;;;;;;7.65;3.50;;;0.70;99.90;;;;;;6211993;22;20066;-84
2021/01/30 00:06:56;;;;;;;8.98;3.75;;;1.20;99.90;;;;;;6249911;23;20020;-84
2021/01/30 00:09:25;;;;;;;16.77;4.05;;;0.70;99.90;;;;;;6223993;23;20090;-84
2021/01/30 00:11:57;;;;;;;11.20;3.75;;;0.70;99.90;;;;;;6224360;23;20023;-84
2021/01/30 00:14:26;;;;;;;7.93;3.30;;;0.70;99.90;;;;;;6224896;23;20022;-85
2021/01/30 00:16:52;;;;;;;7.55;3.00;;;0.70;99.90;;;;;;6189741;23;20012;-85
2021/01/30 00:19:18;;;;;;;4.45;2.42;;;0.80;99.90;;;;;;6214350;23;20098;-86
2021/01/30 00:21:59;;;;;;;6.78;2.85;;;0.80;99.90;;;;;;6214688;23;20091;-84
2021/01/30 00:24:27;;;;;;;6.43;2.85;;;0.80;99.90;;;;;;6250307;23;20487;-87
2021/01/30 00:27:01;;;;;;;8.95;3.38;;;0.70;99.90;;;;;;6251656;23;20020;-85
2021/01/30 00:29:30;;;;;;;7.93;3.13;;;0.80;99.90;;;;;;6251420;23;20042;-85
2021/01/30 00:31:57;;;;;;;9.40;3.20;;;0.70;99.90;;;;;;6224277;23;20043;-86
2021/01/30 00:34:24;;;;;;;7.30;3.33;;;0.70;99.90;;;;;;6224403;23;20329;-86
2021/01/30 00:36:55;;;;;;;7.60;3.38;;;0.70;99.90;;;;;;6241258;23;20066;-86
2021/01/30 00:39:22;;;;;;;6.80;3.20;;;0.70;99.90;;;;;;6223901;23;20012;-84
2021/01/30 00:41:48;;;;;;;5.10;2.13;;;0.70;99.90;;;;;;6224157;23;20423;-86
2021/01/30 00:44:15;;;;;;;7.18;2.97;;;0.70;99.90;;;;;;6214278;23;20420;-87
2021/01/30 00:46:42;;;;;;;10.05;3.08;;;0.70;99.90;;;;;;6225640;23;20023;-83
2021/01/30 00:49:08;;;;;;;4.65;2.97;;;0.70;99.90;;;;;;6242513;23;20062;-84
2021/01/30 00:51:34;;;;;;;10.55;3.42;;;0.70;99.90;;;;;;6242902;23;20016;-83
2021/01/30 00:54:00;;;;;;;11.52;3.13;;;0.70;99.90;;;;;;6252961;23;20026;-87
2021/01/30 00:56:26;;;;;;;9.30;3.03;;;0.70;99.90;;;;;;6218108;23;20016;-85
2021/01/30 00:58:52;;;;;;;4.80;2.70;;;0.70;99.90;;;;;;6225794;23;20019;-87
2021/01/30 01:01:18;;;;;;;7.28;3.35;;;0.70;99.90;;;;;;6216105;23;20019;-86
2021/01/30 01:03:43;;;;;;;9.73;3.28;;;0.70;99.90;;;;;;6215889;23;20028;-86
2021/01/30 01:06:09;;;;;;;9.00;3.40;;;0.70;99.90;;;;;;6191338;23;20479;-86
2021/01/30 01:08:35;;;;;;;8.15;3.05;;;0.70;99.90;;;;;;6243925;23;20016;-84
2021/01/30 01:11:02;;;;;;;6.00;3.22;;;0.70;99.90;;;;;;6215748;23;20099;-84
2021/01/30 01:13:28;;;;;;;7.38;2.95;;;0.70;99.90;;;;;;6215288;23;20113;-86
2021/01/30 01:15:55;;;;;;;5.55;3.10;;;0.70;99.90;;;;;;6215847;23;20012;-83
2021/01/30 01:18:21;;;;;;;8.32;3.50;;;0.80;99.90;;;;;;6225684;23;20016;-83
2021/01/30 01:20:50;;;;;;;6.97;3.00;;;0.90;99.90;;;;;;6244131;23;20448;-84
2021/01/30 01:23:32;;;;;;;9.70;2.80;;;0.70;99.90;;;;;;6223293;23;20066;-86
2021/01/30 01:26:56;;;;;;;7.95;3.63;;;0.70;99.90;;;;;;6197820;23;20024;-85
2021/01/30 01:29:23;;;;;;;7.35;3.63;;;0.70;99.90;;;;;;6193160;23;20020;-83
2021/01/30 01:31:51;;;;;;;10.57;3.75;;;0.60;99.90;;;;;;6216078;23;20035;-85
2021/01/30 01:34:20;;;;;;;8.40;4.03;;;0.60;99.90;;;;;;6216428;23;20050;-83
2021/01/30 01:37:09;;;;;;;7.65;3.90;;;0.60;99.90;;;;;;6232796;23;20012;-86
2021/01/30 01:40:00;;;;;;;12.02;3.65;;;0.50;99.90;;;;;;6221028;23;20074;-82
2021/01/30 01:42:26;;;;;;;11.57;4.45;;;0.50;99.90;;;;;;6215689;23;20012;-85
2021/01/30 01:44:53;;;;;;;10.90;4.28;;;0.40;99.90;;;;;;6252889;23;20020;-84
2021/01/30 01:47:25;;;;;;;12.23;4.63;;;0.40;99.90;;;;;;6225279;23;20507;-85
2021/01/30 01:49:54;;;;;;;11.18;5.20;;;0.40;99.90;;;;;;6252497;23;20012;-85
2021/01/30 01:52:32;;;;;;;11.30;4.68;;;0.30;99.90;;;;;;6241995;23;20012;-83
2021/01/30 01:55:04;;;;;;;12.10;4.88;;;0.20;99.90;;;;;;6242704;23;20008;-85
2021/01/30 01:57:32;;;;;;;9.27;4.63;;;0.20;99.90;;;;;;6252458;23;20530;-83
2021/01/30 01:59:58;;;;;;;7.85;4.53;;;0.30;99.90;;;;;;6243082;23;20432;-83
2021/01/30 02:02:28;;;;;;;9.65;5.10;;;0.20;99.90;;;;;;6252448;23;20050;-86
2021/01/30 02:05:11;;;;;;;8.32;5.05;;;0.20;99.90;;;;;;6223384;23;20375;-85
2021/01/30 02:07:44;;;;;;;11.40;5.05;;;0.20;99.90;;;;;;6247308;23;20436;-85
2021/01/30 02:10:23;;;;;;;14.13;5.85;;;0.20;99.90;;;;;;6249428;23;20087;-84
2021/01/30 02:12:52;;;;;;;14.60;5.82;;;0.20;99.90;;;;;;6242423;23;20094;-84
2021/01/30 02:15:20;;;;;;;10.02;5.18;;;0.20;99.90;;;;;;6241993;23;20082;-85
2021/01/30 02:18:05;;;;;;;11.50;5.35;;;0.20;99.90;;;;;;6215335;23;20161;-83
2021/01/30 02:21:13;;;;;;;12.48;5.90;;;0.20;99.90;;;;;;6228676;23;20436;-82
2021/01/30 02:24:00;;;;;;;13.68;5.75;;;0.20;99.90;;;;;;6224334;23;20090;-86
2021/01/30 02:26:39;;;;;;;14.65;5.70;;;0.20;99.90;;;;;;6243742;23;20016;-83
2021/01/30 02:29:23;;;;;;;15.25;6.10;;;0.10;99.90;;;;;;6241814;23;20092;-83
2021/01/30 02:32:11;;;;;;;7.70;5.13;;;0.10;99.90;;;;;;6225816;23;20522;-85
2021/01/30 02:34:50;;;;;;;10.27;5.63;;;0.00;99.90;;;;;;6215856;23;20098;-84
2021/01/30 02:37:22;;;;;;;14.95;6.53;;;-0.10;99.90;;;;;;6218034;23;20468;-83
2021/01/30 02:40:01;;;;;;;9.27;5.60;;;-0.10;99.90;;;;;;6223759;23;20011;-85
2021/01/30 02:42:35;;;;;;;12.75;5.93;;;-0.20;99.90;;;;;;6224841;23;20016;-82
2021/01/30 02:45:32;;;;;;;13.27;6.47;;;-0.20;99.90;;;;;;6225366;23;20432;-84
2021/01/30 02:48:14;;;;;;;14.38;5.80;;;-0.30;99.90;;;;;;6251832;23;20104;-85
2021/01/30 02:50:48;;;;;;;13.57;6.28;;;0.30;99.90;;;;;;6215076;23;20468;-84
2021/01/30 02:53:18;;;;;;;14.40;6.28;;;-0.30;99.90;;;;;;6224708;23;20027;-82
2021/01/30 02:55:44;;;;;;;13.07;6.43;;;-0.10;99.90;;;;;;6214458;23;20032;-85
2021/01/30 02:58:13;;;;;;;9.73;6.05;;;-0.30;99.90;;;;;;6241706;23;20023;-85
2021/01/30 03:00:40;;;;;;;14.27;6.43;;;-0.20;99.90;;;;;;6214811;23;20103;-82
2021/01/30 03:07:15;;;;;;;17.63;6.18;;;-0.30;99.90;;;;;;6131027;23;20029;-83
2021/01/30 03:09:41;;;;;;;14.50;6.88;;;-0.30;99.90;;;;;;6132636;23;20514;-85
2021/01/30 03:12:30;;;;;;;11.07;5.15;;;-0.20;99.90;;;;;;6148522;23;20018;-85
2021/01/30 03:15:00;;;;;;;12.70;6.00;;;-0.20;99.90;;;;;;6158522;23;20145;-85
2021/01/30 03:17:28;;;;;;;16.42;5.90;;;0.40;99.90;;;;;;6148465;23;20018;-86
2021/01/30 03:19:56;;;;;;;14.30;6.65;;;-0.20;99.90;;;;;;6148830;23;20021;-84
2021/01/30 03:22:24;;;;;;;15.82;6.03;;;-0.20;99.90;;;;;;6147723;23;20056;-83
2021/01/30 03:25:10;;;;;;;8.73;5.15;;;-0.20;99.90;;;;;;6148818;23;20041;-84
2021/01/30 03:27:38;;;;;;;11.32;5.85;;;-0.30;99.90;;;;;;6107366;23;20076;-83
2021/01/30 03:30:09;;;;;;;14.50;5.53;;;-0.20;99.90;;;;;;6147793;23;20388;-82
2021/01/30 03:32:35;;;;;;;10.13;5.57;;;-0.30;99.90;;;;;;6099278;23;20076;-83
2021/01/30 03:35:03;;;;;;;9.55;5.65;;;-0.20;99.90;;;;;;6158086;23;20017;-83
2021/01/30 03:37:29;;;;;;;11.98;5.57;;;-0.20;99.90;;;;;;6123063;23;20068;-83
2021/01/30 03:39:55;;;;;;;9.25;5.22;;;-0.30;99.90;;;;;;6131931;23;20556;-85
2021/01/30 03:42:21;;;;;;;11.15;5.57;;;-0.30;99.90;;;;;;6167983;23;20080;-84
2021/01/30 03:44:46;;;;;;;9.85;5.47;;;-0.30;99.90;;;;;;6211266;23;20031;-84
2021/01/30 03:47:16;;;;;;;8.90;5.25;;;-0.40;99.90;;;;;;6211484;23;20023;-85
2021/01/30 03:49:57;;;;;;;11.27;5.60;;;-0.30;99.90;;;;;;6233408;23;20049;-82
2021/01/30 03:52:39;;;;;;;10.57;5.47;;;-0.40;99.90;;;;;;6229269;23;20047;-85
2021/01/30 03:55:06;;;;;;;13.02;5.63;;;-0.40;99.90;;;;;;6211969;23;20009;-84
2021/01/30 03:57:32;;;;;;;12.60;5.10;;;-0.40;99.90;;;;;;6219601;23;20032;-83
2021/01/30 03:59:58;;;;;;;8.07;4.07;;;-0.50;99.90;;;;;;6209275;23;20021;-84
2021/01/30 04:02:23;;;;;;;10.15;4.70;;;-0.50;99.90;;;;;;6221389;23;20476;-84
2021/01/30 04:04:49;;;;;;;11.27;4.78;;;0.10;99.90;;;;;;6223116;22;20020;-84
2021/01/30 04:07:15;;;;;;;10.90;5.47;;;-0.50;99.90;;;;;;6244249;23;20012;-85
2021/01/30 04:09:41;;;;;;;13.05;4.85;;;-0.50;99.90;;;;;;6214995;23;20070;-84
2021/01/30 04:12:08;;;;;;;10.45;5.20;;;-0.40;99.90;;;;;;6214738;23;20024;-84
2021/01/30 04:14:34;;;;;;;18.20;5.47;;;-0.50;99.90;;;;;;6215086;23;20044;-83
2021/01/30 04:17:01;;;;;;;10.30;4.78;;;-0.50;99.90;;;;;;6215145;23;20491;-83
2021/01/30 04:19:27;;;;;;;13.85;5.30;;;-0.50;99.90;;;;;;6242246;23;20024;-85
2021/01/30 04:21:52;;;;;;;9.57;5.07;;;-0.50;99.90;;;;;;6219119;23;20099;-83
2021/01/30 04:24:18;;;;;;;12.75;5.30;;;-0.50;99.90;;;;;;6253650;23;20012;-83
2021/01/30 04:26:49;;;;;;;12.57;5.03;;;-0.60;99.90;;;;;;6217088;23;20012;-82
2021/01/30 04:29:16;;;;;;;15.15;4.97;;;-0.60;99.90;;;;;;6255020;23;20016;-82
2021/01/30 04:31:42;;;;;;;14.73;4.50;;;-0.60;99.90;;;;;;6216320;23;20091;-85
2021/01/30 04:34:08;;;;;;;13.65;4.95;;;-0.60;99.90;;;;;;6253207;23;20050;-83
2021/01/30 04:36:34;;;;;;;9.10;4.60;;;-0.60;99.90;;;;;;6217436;23;20027;-85
2021/01/30 04:39:00;;;;;;;9.20;4.40;;;-0.60;99.90;;;;;;6252969;23;20012;-82
2021/01/30 04:42:04;;;;;;;9.57;4.90;;;-0.70;99.90;;;;;;6216165;23;20391;-82
2021/01/30 04:44:35;;;;;;;9.90;4.68;;;-0.70;99.90;;;;;;6076617;23;20118;-82
2021/01/30 04:47:16;;;;;;;14.63;4.82;;;-0.70;99.90;;;;;;6068725;23;20027;-83
2021/01/30 04:49:54;;;;;;;6.57;3.95;;;-0.80;99.90;;;;;;6076820;23;20521;-85
2021/01/30 04:52:31;;;;;;;8.40;4.93;;;-0.70;99.90;;;;;;6072693;23;20062;-82
2021/01/30 04:55:07;;;;;;;9.98;4.35;;;-0.80;99.90;;;;;;6075028;23;20022;-81
2021/01/30 04:57:59;;;;;;;10.25;4.60;;;-0.80;99.90;;;;;;6076582;23;20062;-84
2021/01/30 05:00:36;;;;;;;7.90;4.35;;;-0.80;99.90;;;;;;6100852;23;20036;-83
2021/01/30 05:03:16;;;;;;;18.80;4.63;;;-0.80;99.90;;;;;;6076302;23;20023;-84
2021/01/30 05:05:46;;;;;;;8.35;4.47;;;-0.80;99.90;;;;;;6066745;23;20031;-86
2021/01/30 05:08:18;;;;;;;11.43;4.93;;;-0.80;99.90;;;;;;6069447;23;20022;-83
2021/01/30 05:10:50;;;;;;;11.35;4.80;;;-0.90;99.90;;;;;;6067150;23;20018;-85
2021/01/30 05:13:18;;;;;;;8.63;4.82;;;-0.90;99.90;;;;;;6076523;23;20044;-84
2021/01/30 05:15:59;;;;;;;10.50;4.97;;;-0.90;99.90;;;;;;6100498;23;20165;-83
2021/01/30 05:18:29;;;;;;;11.02;4.60;;;-1.00;99.90;;;;;;6166582;23;20453;-82
2021/01/30 05:21:13;;;;;;;9.23;4.95;;;-1.00;99.90;;;;;;6256331;23;20015;-81
2021/01/30 05:23:42;;;;;;;7.93;4.93;;;-1.00;99.90;;;;;;6252113;23;20027;-82
2021/01/30 05:26:49;;;;;;;10.52;4.75;;;-0.90;99.90;;;;;;6215884;23;20020;-82
2021/01/30 05:29:36;;;;;;;11.35;5.15;;;-1.00;99.90;;;;;;6225819;23;20020;-84
2021/01/30 05:32:45;;;;;;;11.80;4.95;;;-1.00;99.90;;;;;;6215562;23;20420;-82
2021/01/30 05:35:17;;;;;;;12.15;5.80;;;-1.10;99.90;;;;;;6253055;23;20024;-81
2021/01/30 05:37:51;;;;;;;14.10;5.50;;;-1.10;99.90;;;;;;6252245;23;20082;-82
2021/01/30 05:40:26;;;;;;;14.55;5.45;;;-1.10;99.90;;;;;;6222961;23;20023;-83
2021/01/30 05:43:01;;;;;;;13.90;5.30;;;-1.10;99.90;;;;;;6225644;23;20019;-83
2021/01/30 05:45:41;;;;;;;10.00;5.15;;;-1.10;99.90;;;;;;6242668;23;20016;-83
2021/01/30 05:48:38;;;;;;;13.77;5.70;;;-1.10;99.90;;;;;;6225684;23;20016;-83
2021/01/30 05:51:21;;;;;;;7.57;5.03;;;-1.10;99.90;;;;;;6092198;23;20129;-81
2021/01/30 05:53:48;;;;;;;8.55;5.25;;;-1.20;99.90;;;;;;6079129;23;20090;-82
2021/01/30 05:56:52;;;;;;;18.50;5.30;;;-1.20;99.90;;;;;;6091351;23;20050;-83
2021/01/30 05:59:23;;;;;;;17.42;6.25;;;-1.20;99.90;;;;;;5986054;24;20056;-84
2021/01/30 06:01:49;;;;;;;12.95;6.07;;;-1.20;99.90;;;;;;5980555;24;20028;-83
2021/01/30 06:04:26;;;;;;;11.43;5.55;;;-1.30;99.90;;;;;;5957590;24;20099;-83
2021/01/30 06:06:56;;;;;;;12.88;5.50;;;-1.30;99.90;;;;;;5979353;24;20028;-81
2021/01/30 06:09:33;;;;;;;11.50;5.68;;;-1.30;99.90;;;;;;5962907;24;20030;-82
2021/01/30 06:12:02;;;;;;;11.90;6.07;;;-1.30;99.90;;;;;;5979237;24;20024;-83
2021/01/30 06:14:35;;;;;;;12.50;5.80;;;-1.30;99.90;;;;;;5958430;24;20059;-83
2021/01/30 06:17:05;;;;;;;13.82;5.93;;;-1.40;99.90;;;;;;5982681;24;20513;-82
2021/01/30 06:19:34;;;;;;;16.58;5.93;;;-1.40;99.90;;;;;;5987208;24;20055;-84
2021/01/30 06:22:16;;;;;;;13.52;6.03;;;-1.40;99.90;;;;;;5978463;24;20020;-83
2021/01/30 06:24:57;;;;;;;14.20;5.93;;;-1.50;99.90;;;;;;5976475;24;20050;-82
2021/01/30 06:27:41;;;;;;;10.95;5.93;;;-1.50;99.90;;;;;;6034802;23;20033;-83
2021/01/30 06:30:40;;;;;;;16.10;6.43;;;-1.60;99.90;;;;;;6157685;23;20019;-83
2021/01/30 06:33:33;;;;;;;10.48;5.55;;;-1.60;99.90;;;;;;6191042;23;20405;-83
2021/01/30 06:36:18;;;;;;;14.90;5.78;;;-1.70;99.90;;;;;;6243489;23;20015;-82
2021/01/30 06:38:58;;;;;;;13.88;6.20;;;-1.70;99.90;;;;;;6225727;23;20016;-85
2021/01/30 06:41:30;;;;;;;11.30;5.78;;;-1.80;99.90;;;;;;6245869;23;20463;-84
2021/01/30 06:44:22;;;;;;;12.13;5.95;;;-1.80;99.90;;;;;;6215122;23;20039;-84
2021/01/30 06:47:21;;;;;;;12.60;5.45;;;-1.80;99.90;;;;;;6226259;23;20364;-84
2021/01/30 06:50:29;;;;;;;13.98;6.38;;;-1.90;99.90;;;;;;6233449;23;20167;-82
2021/01/30 06:53:11;;;;;;;13.50;5.45;;;-1.90;99.90;;;;;;6067256;23;20439;-81
2021/01/30 06:55:36;;;;;;;16.02;6.63;;;-1.90;99.90;;;;;;6096692;23;20029;-82
2021/01/30 06:58:04;;;;;;;10.73;5.30;;;-2.00;99.90;;;;;;6067877;23;20101;-82
2021/01/30 07:00:38;;;;;;;14.70;6.93;;;-2.00;99.90;;;;;;6066725;23;20109;-83
2021/01/30 07:03:13;;;;;;;13.63;6.47;;;-2.00;99.90;;;;;;6080064;23;20022;-84
2021/01/30 07:05:56;;;;;;;14.68;6.63;;;-2.00;99.90;;;;;;6065538;23;20038;-84
2021/01/30 07:08:45;;;;;;;15.75;6.45;;;-2.10;99.90;;;;;;6069279;23;20519;-82
2021/01/30 07:11:31;;;;;;;12.85;6.40;;;-2.00;99.90;;;;;;6090229;23;20097;-83
2021/01/30 07:14:04;;;;;;;11.63;6.32;;;-2.10;99.90;;;;;;6003976;23;20023;-84
2021/01/30 07:16:38;;;;;;;17.33;6.80;;;-2.10;99.90;;;;;;6005476;23;20047;-84
2021/01/30 07:19:15;;;;;;;15.48;6.40;;;-2.10;99.90;;;;;;6008113;23;20046;-83
2021/01/30 07:21:48;;;;;;;12.68;6.93;;;-2.10;99.90;;;;;;6005694;23;20102;-83
2021/01/30 07:24:49;;;;;;;14.13;6.95;;;-2.20;99.90;;;;;;6007269;23;20028;-83
2021/01/30 07:27:22;;;;;;;16.67;7.60;;;-2.20;99.90;;;;;;5952236;24;20475;-85
2021/01/30 07:30:03;;;;;;;12.23;7.53;;;-2.20;99.90;;;;;;5978621;23;20094;-84
2021/01/30 07:32:59;;;;;;;13.80;6.70;;;-2.20;99.90;;;;;;5991069;23;20107;-83
2021/01/30 07:35:54;;;;;;;12.95;7.55;;;-2.20;99.90;;;;;;5901583;24;20025;-84
2021/01/30 07:38:36;;;;;;;16.90;8.13;;;-2.20;99.90;;;;;;5866457;24;20409;-84
2021/01/30 07:41:31;;;;;;;18.13;7.43;;;-2.20;99.90;;;;;;5867204;24;20105;-84
2021/01/30 07:44:20;;;;;;;16.77;8.57;;;-1.70;99.90;;;;;;5866501;24;20053;-83
2021/01/30 07:47:22;;;;;;;15.90;8.07;;;-2.20;99.90;;;;;;5866641;24;20120;-84
2021/01/30 07:50:02;;;;;;;20.20;7.93;;;-2.10;99.90;;;;;;5868335;24;20114;-85
2021/01/30 07:52:39;;;;;;;16.42;8.10;;;-2.10;99.90;;;;;;5927039;24;20123;-84
2021/01/30 07:55:46;;;;;;;13.05;7.80;;;-1.10;99.90;;;;;;5941338;23;20017;-82
2021/01/30 07:58:33;;;;;;;16.85;8.20;;;-1.90;99.90;;;;;;5891633;24;20123;-82
2021/01/30 08:01:32;;;;;;;17.02;8.82;;;-1.90;99.90;;;;;;5894710;24;20124;-84
2021/01/30 08:04:14;;;;;;;16.95;8.43;;;-1.80;99.90;;;;;;5933407;23;20020;-84
2021/01/30 08:07:17;;;;;;;18.65;8.55;;;-1.80;99.90;;;;;;6004586;23;20038;-84
2021/01/30 08:10:20;;;;;;;16.65;8.70;;;-1.70;99.90;;;;;;5972019;23;20016;-83
2021/01/30 08:13:10;;;;;;;15.27;7.93;;;-1.70;99.90;;;;;;6039086;23;20085;-83
2021/01/30 08:16:14;;;;;;;19.23;8.57;;;-1.60;99.90;;;;;;6190808;23;20012;-83
2021/01/30 08:18:43;;;;;;;17.17;8.85;;;-1.60;99.90;;;;;;6241790;23;20016;-84
2021/01/30 08:21:27;;;;;;;19.65;9.43;;;-1.50;99.90;;;;;;6225294;23;20040;-83
2021/01/30 08:24:06;;;;;;;17.07;9.17;;;-1.50;99.90;;;;;;6224827;23;20181;-83
2021/01/30 08:26:40;;;;;;;14.95;9.07;;;-1.50;99.90;;;;;;6241588;23;20087;-84
2021/01/30 08:29:11;;;;;;;24.35;8.70;;;-1.50;99.90;;;;;;6251406;23;20344;-83
2021/01/30 08:31:39;;;;;;;18.73;9.32;;;-1.40;99.90;;;;;;6251836;23;20440;-83
2021/01/30 08:34:19;;;;;;;18.33;9.10;;;-1.30;99.90;;;;;;6251529;23;20042;-83
2021/01/30 08:36:48;;;;;;;17.48;9.13;;;-1.30;99.90;;;;;;6224786;23;20011;-84
2021/01/30 08:39:33;;;;;;;28.55;9.00;;;-1.30;99.90;;;;;;6251138;23;20074;-83
2021/01/30 08:42:20;;;;;;;13.85;8.27;;;-1.30;99.90;;;;;;6214608;23;20016;-83
2021/01/30 08:44:52;;;;;;;16.95;9.00;;;-1.20;99.90;;;;;;6214223;23;20474;-85
2021/01/30 08:47:23;;;;;;;16.60;8.90;;;-1.20;99.90;;;;;;6214590;23;20039;-83
2021/01/30 08:50:00;;;;;;;18.80;8.82;;;-1.20;99.90;;;;;;6224806;23;20075;-83
2021/01/30 08:52:50;;;;;;;19.50;8.90;;;-1.10;99.90;;;;;;6189501;23;20040;-84
2021/01/30 08:55:28;;;;;;;17.67;9.13;;;-1.10;99.90;;;;;;6222821;23;20074;-84
2021/01/30 08:57:55;;;;;;;20.52;8.57;;;-1.10;99.90;;;;;;6214942;23;20103;-83
2021/01/30 09:00:25;;;;;;;12.15;7.25;;;-1.00;99.90;;;;;;6252223;23;20015;-84
2021/01/30 09:02:52;;;;;;;17.23;8.85;;;-1.00;99.90;;;;;;6189452;23;20016;-84
2021/01/30 09:05:21;;;;;;;13.60;7.72;;;-1.00;99.90;;;;;;6214184;23;20020;-84
2021/01/30 09:07:55;;;;;;;16.27;7.78;;;-0.90;99.90;;;;;;6219805;23;20023;-84
2021/01/30 09:10:21;;;;;;;13.32;7.97;;;-0.90;99.90;;;;;;6223425;23;20451;-83
2021/01/30 09:12:58;;;;;;;18.27;8.57;;;-0.80;99.90;;;;;;6252673;23;20013;-83
2021/01/30 09:15:58;;;;;;;13.90;8.23;;;-0.80;99.90;;;;;;6190748;23;20039;-84
2021/01/30 09:18:36;;;;;;;21.50;8.75;;;-0.80;99.90;;;;;;6092532;23;20025;-82
2021/01/30 09:21:12;;;;;;;13.95;7.60;;;-0.80;99.90;;;;;;6101023;23;20057;-83
2021/01/30 09:23:43;;;;;;;12.13;8.02;;;-0.70;99.90;;;;;;6092830;23;20026;-84
2021/01/30 09:26:25;;;;;;;18.02;7.82;;;-0.70;99.90;;;;;;6096002;23;20556;-83
2021/01/30 09:29:03;;;;;;;12.38;7.80;;;-0.70;99.90;;;;;;6096525;23;20403;-84
2021/01/30 09:31:30;;;;;;;13.60;7.80;;;-0.70;99.90;;;;;;6092904;23;20019;-85
2021/01/30 09:34:29;;;;;;;15.85;7.93;;;0.00;99.90;;;;;;6102048;23;20113;-84
2021/01/30 09:36:56;;;;;;;13.60;7.28;;;0.00;99.90;;;;;;5988707;23;20098;-83
2021/01/30 09:39:32;;;;;;;10.65;6.47;;;-0.50;99.90;;;;;;6013239;23;20123;-83
2021/01/30 09:42:10;;;;;;;10.50;5.97;;;-0.50;99.90;;;;;;5982328;23;20102;-84
2021/01/30 09:44:36;;;;;;;12.13;6.80;;;-0.50;99.90;;;;;;6015061;23;20030;-83
2021/01/30 09:47:07;;;;;;;12.95;6.60;;;-0.50;99.90;;;;;;6005137;23;20107;-83
2021/01/30 09:49:48;;;;;;;16.83;7.05;;;-0.40;99.90;;;;;;6005734;23;20060;-84
2021/01/30 09:52:18;;;;;;;13.82;6.57;;;-0.40;99.90;;;;;;5980527;23;20016;-84
2021/01/30 09:54:44;;;;;;;6.70;3.97;;;-0.40;99.90;;;;;;6042151;23;20054;-84
2021/01/30 09:57:22;;;;;;;10.85;6.13;;;-0.40;99.90;;;;;;6121131;23;20018;-83
2021/01/30 10:00:00;;;;;;;14.90;7.68;;;-0.30;99.90;;;;;;6125113;23;20021;-83
2021/01/30 10:02:29;;;;;;;14.85;7.05;;;-0.40;99.90;;;;;;6129650;23;20066;-83
2021/01/30 10:05:06;;;;;;;12.77;6.82;;;-0.30;99.90;;;;;;6128209;23;20021;-83
2021/01/30 10:07:35;;;;;;;11.85;7.63;;;-0.20;99.90;;;;;;6094965;23;20097;-84
2021/01/30 10:10:02;;;;;;;9.60;5.30;;;0.00;99.90;;;;;;6105140;23;20052;-83
2021/01/30 10:12:33;;;;;;;10.35;6.88;;;-0.20;99.90;;;;;;6174332;23;20016;-84
2021/01/30 10:14:59;;;;;;;10.52;6.35;;;-0.20;99.90;;;;;;6221200;23;20372;-83
2021/01/30 10:17:41;;;;;;;13.02;7.15;;;-0.10;99.90;;;;;;6211319;23;20049;-82
2021/01/30 10:20:14;;;;;;;11.13;7.40;;;0.40;99.90;;;;;;6211709;23;20034;-82
2021/01/30 10:22:46;;;;;;;13.00;7.47;;;-0.10;99.90;;;;;;6211812;23;20016;-83
2021/01/30 10:25:19;;;;;;;11.27;6.28;;;0.50;99.90;;;;;;6212710;23;20023;-83
2021/01/30 10:27:45;;;;;;;8.57;5.72;;;0.10;99.90;;;;;;6210828;23;20023;-82
2021/01/30 10:30:14;;;;;;;12.05;6.60;;;0.10;99.90;;;;;;6222828;23;20404;-82
2021/01/30 10:32:49;;;;;;;11.45;6.57;;;0.20;99.90;;;;;;6211959;23;20083;-83
2021/01/30 10:35:18;;;;;;;;;;;0.20;99.90;;;;;;6221584;23;20020;-83
2021/01/30 10:38:04;;;;;;;10.23;6.65;;;0.60;99.90;;;;;;6211990;23;20336;-83
2021/01/30 10:40:33;;;;;;;11.15;6.15;;;0.30;99.90;;;;;;6222575;23;20027;-83
2021/01/30 10:43:05;;;;;;;9.10;5.60;;;1.20;99.90;;;;;;6222126;23;20012;-83
2021/01/30 10:45:34;;;;;;;10.77;6.50;;;0.40;99.90;;;;;;6220589;23;20433;-83
2021/01/30 10:48:08;;;;;;;9.90;6.07;;;0.40;99.90;;;;;;6222327;23;20016;-83
2021/01/30 10:50:41;;;;;;;9.90;6.28;;;0.30;99.90;;;;;;6211067;23;20435;-83
2021/01/30 10:53:22;;;;;;;11.80;5.80;;;0.40;99.90;;;;;;6221993;23;20020;-83
2021/01/30 10:55:52;;;;;;;12.43;7.28;;;0.40;99.90;;;;;;6187273;23;20027;-83
2021/01/30 10:58:26;;;;;;;10.93;6.80;;;0.50;99.90;;;;;;6220722;23;20016;-83
2021/01/30 11:01:01;;;;;;;12.27;5.80;;;0.50;99.90;;;;;;6223007;23;20286;-83
2021/01/30 11:03:39;;;;;;;9.80;6.43;;;0.60;99.90;;;;;;6211739;23;20060;-83
2021/01/30 11:06:32;;;;;;;9.27;6.40;;;0.60;99.90;;;;;;6214809;23;20021;-82
2021/01/30 11:09:20;;;;;;;9.63;5.95;;;0.60;99.90;;;;;;6210476;23;20016;-83
2021/01/30 11:11:47;;;;;;;9.57;5.95;;;0.70;99.90;;;;;;6190603;23;20395;-82
2021/01/30 11:14:28;;;;;;;10.52;5.80;;;0.70;99.90;;;;;;6210070;23;20562;-82
2021/01/30 11:16:56;;;;;;;9.88;5.45;;;0.80;99.90;;;;;;6222468;23;20497;-83
2021/01/30 11:19:33;;;;;;;8.38;5.82;;;0.70;99.90;;;;;;6222782;23;20012;-83
2021/01/30 11:22:22;;;;;;;9.73;5.55;;;0.70;99.90;;;;;;6220903;23;20035;-83
2021/01/30 11:25:27;;;;;;;10.30;6.07;;;1.00;99.90;;;;;;6221166;23;20471;-83
2021/01/30 11:27:54;;;;;;;11.77;5.60;;;0.50;99.90;;;;;;6187027;23;20012;-83
2021/01/30 11:30:27;;;;;;;9.00;6.10;;;0.50;99.90;;;;;;6186009;23;20032;-83
2021/01/30 11:33:20;;;;;;;11.85;5.97;;;0.50;99.90;;;;;;6220790;23;20091;-83
2021/01/30 11:35:52;;;;;;;6.72;4.90;;;0.30;99.90;;;;;;6207372;23;20095;-82
2021/01/30 11:38:23;;;;;;;8.75;5.90;;;0.40;99.90;;;;;;6220190;23;20030;-84
2021/01/30 11:40:51;;;;;;;8.88;6.05;;;1.10;99.90;;;;;;6210136;23;20084;-84
2021/01/30 11:43:20;;;;;;;6.07;4.40;;;0.50;99.90;;;;;;6220303;23;20389;-84
2021/01/30 11:45:48;;;;;;;7.82;5.00;;;0.50;99.90;;;;;;6222904;23;20290;-83
2021/01/30 11:48:14;;;;;;;7.25;5.28;;;0.60;99.90;;;;;;6222935;23;20559;-83
2021/01/30 11:50:40;;;;;;;8.73;5.95;;;1.10;99.90;;;;;;6212589;23;20123;-83
2021/01/30 11:53:11;;;;;;;11.40;5.35;;;0.80;99.90;;;;;;6209756;23;20442;-83
2021/01/30 11:55:38;;;;;;;10.45;5.80;;;0.70;99.90;;;;;;6211296;23;20053;-83
2021/01/30 11:58:05;;;;;;;7.00;5.53;;;0.80;99.90;;;;;;6211513;23;20073;-83
2021/01/30 12:00:31;;;;;;;7.95;5.55;;;1.40;99.90;;;;;;6221651;23;20013;-83
2021/01/30 12:02:59;;;;;;;8.82;4.38;;;1.00;99.90;;;;;;6211798;23;20067;-83
2021/01/30 12:05:26;;;;;;;8.90;5.55;;;1.00;99.90;;;;;;6227143;23;20435;-83
2021/01/30 12:07:51;;;;;;;6.20;4.32;;;1.20;99.90;;;;;;6214231;23;20020;-84
2021/01/30 12:10:18;;;;;;;7.75;5.45;;;1.10;99.90;;;;;;6250061;23;20087;-84
2021/01/30 12:12:45;;;;;;;10.65;6.60;;;1.20;99.90;;;;;;6214447;23;20062;-83
2021/01/30 12:15:12;;;;;;;7.72;5.75;;;1.40;99.90;;;;;;6252796;23;20043;-83
2021/01/30 12:17:41;;;;;;;9.63;5.90;;;1.50;99.90;;;;;;6226482;23;20012;-83
2021/01/30 12:20:11;;;;;;;8.93;5.60;;;1.50;99.90;;;;;;6226724;23;20023;-83
2021/01/30 12:22:37;;;;;;;9.77;6.22;;;1.50;99.90;;;;;;6226603;23;20016;-83
2021/01/30 12:25:05;;;;;;;8.88;6.00;;;2.10;99.90;;;;;;6225012;23;20088;-83
2021/01/30 12:27:31;;;;;;;10.75;5.40;;;1.70;98.60;;;;;;6252778;23;20332;-84
2021/01/30 12:29:57;;;;;;;7.35;4.63;;;2.20;99.50;;;;;;6252971;23;20036;-83
2021/01/30 12:32:23;;;;;;;9.45;4.72;;;1.40;98.40;;;;;;6226239;23;20298;-83
2021/01/30 12:34:49;;;;;;;7.63;5.25;;;1.50;98.40;;;;;;6226418;23;20119;-83
2021/01/30 12:37:14;;;;;;;8.10;5.25;;;2.20;99.20;;;;;;6215230;23;20078;-83
2021/01/30 12:39:42;;;;;;;10.27;5.50;;;2.00;98.70;;;;;;6215487;23;20022;-83
2021/01/30 12:42:07;;;;;;;8.32;6.13;;;1.30;98.10;;;;;;6243633;23;20066;-83
2021/01/30 12:44:33;;;;;;;8.82;5.72;;;1.20;98.90;;;;;;6254260;23;20432;-84
2021/01/30 12:46:59;;;;;;;9.68;6.05;;;1.10;98.90;;;;;;6227973;23;20050;-84
2021/01/30 12:49:25;;;;;;;7.97;5.80;;;1.00;99.50;;;;;;6254187;23;20016;-83
2021/01/30 12:51:50;;;;;;;8.05;5.93;;;1.80;99.90;;;;;;6218026;23;20087;-84
2021/01/30 12:54:18;;;;;;;10.85;5.78;;;1.00;99.60;;;;;;6192850;23;20016;-84
2021/01/30 12:56:45;;;;;;;8.90;6.32;;;1.00;99.40;;;;;;6246884;23;20023;-84
2021/01/30 12:59:13;;;;;;;7.47;5.05;;;0.90;99.00;;;;;;6254381;23;20019;-84
2021/01/30 13:01:39;;;;;;;11.32;6.35;;;0.70;99.40;;;;;;6254251;23;20012;-83
2021/01/30 13:04:05;;;;;;;8.13;6.03;;;1.50;99.90;;;;;;6218201;23;20042;-84
2021/01/30 13:06:32;;;;;;;8.30;6.47;;;0.70;99.90;;;;;;6247911;23;20414;-84
2021/01/30 13:08:58;;;;;;;10.25;6.72;;;0.80;99.90;;;;;;6243810;23;20115;-83
2021/01/30 13:11:24;;;;;;;10.80;6.40;;;0.60;99.90;;;;;;6248553;23;20087;-84
2021/01/30 13:13:51;;;;;;;8.48;5.80;;;0.60;99.90;;;;;;6243781;23;20016;-84
2021/01/30 13:16:17;;;;;;;9.02;6.53;;;0.70;99.90;;;;;;6254735;23;20061;-83
2021/01/30 13:18:43;;;;;;;10.57;6.68;;;0.70;99.90;;;;;;6227359;23;20012;-83
2021/01/30 13:21:14;;;;;;;8.40;6.28;;;0.80;99.90;;;;;;6196053;23;20016;-83
2021/01/30 13:23:40;;;;;;;10.88;6.65;;;0.80;99.40;;;;;;6195086;23;20016;-83
2021/01/30 13:26:06;;;;;;;8.07;5.65;;;0.70;99.90;;;;;;6216689;23;20016;-83
2021/01/30 13:28:33;;;;;;;8.88;6.30;;;0.70;99.90;;;;;;6226940;23;20092;-83